sensor_id;sensor_type;location;lat;lon;timestamp;P1;durP1;ratioP1;P2;durP2;ratioP2
19364;SDS011;9818;48.382;10.850;2024-02-04T00:01:13;123.83;;;56.87;;
19364;SDS011;9818;48.382;10.850;2024-02-04T00:03:42;125.20;;;56.50;;
19364;SDS011;9818;48.382;10.850;2024-02-04T00:06:11;120.23;;;54.50;;
19364;SDS011;9818;48.382;10.850;2024-02-04T00:08:39;113.73;;;53.87;;
19364;SDS011;9818;48.382;10.850;2024-02-04T00:11:11;114.80;;;53.67;;
19364;SDS011;9818;48.382;10.850;2024-02-04T00:13:39;111.83;;;51.30;;
19364;SDS011;9818;48.382;10.850;2024-02-04T00:16:08;112.37;;;52.70;;
19364;SDS011;9818;48.382;10.850;2024-02-04T00:18:37;111.73;;;51.33;;
19364;SDS011;9818;48.382;10.850;2024-02-04T00:21:06;118.17;;;52.67;;
19364;SDS011;9818;48.382;10.850;2024-02-04T00:23:35;105.87;;;50.40;;
19364;SDS011;9818;48.382;10.850;2024-02-04T00:26:04;111.93;;;50.50;;
19364;SDS011;9818;48.382;10.850;2024-02-04T00:28:35;100.33;;;49.07;;
19364;SDS011;9818;48.382;10.850;2024-02-04T00:31:04;103.03;;;48.77;;
19364;SDS011;9818;48.382;10.850;2024-02-04T00:33:33;96.90;;;48.20;;
19364;SDS011;9818;48.382;10.850;2024-02-04T00:36:02;97.30;;;48.47;;
19364;SDS011;9818;48.382;10.850;2024-02-04T00:38:31;98.00;;;47.40;;
19364;SDS011;9818;48.382;10.850;2024-02-04T00:40:59;100.27;;;47.90;;
19364;SDS011;9818;48.382;10.850;2024-02-04T00:43:29;97.73;;;46.00;;
19364;SDS011;9818;48.382;10.850;2024-02-04T00:46:00;94.03;;;45.50;;
19364;SDS011;9818;48.382;10.850;2024-02-04T00:48:29;93.67;;;45.00;;
19364;SDS011;9818;48.382;10.850;2024-02-04T00:50:57;94.60;;;45.37;;
19364;SDS011;9818;48.382;10.850;2024-02-04T00:53:26;88.87;;;42.77;;
19364;SDS011;9818;48.382;10.850;2024-02-04T00:55:59;88.53;;;44.23;;
19364;SDS011;9818;48.382;10.850;2024-02-04T00:58:27;90.07;;;44.70;;
19364;SDS011;9818;48.382;10.850;2024-02-04T01:00:56;86.10;;;43.40;;
19364;SDS011;9818;48.382;10.850;2024-02-04T01:03:28;82.83;;;42.53;;
19364;SDS011;9818;48.382;10.850;2024-02-04T01:05:57;86.57;;;41.33;;
19364;SDS011;9818;48.382;10.850;2024-02-04T01:08:25;85.77;;;39.60;;
19364;SDS011;9818;48.382;10.850;2024-02-04T01:10:54;84.67;;;41.33;;
19364;SDS011;9818;48.382;10.850;2024-02-04T01:13:23;80.07;;;39.47;;
19364;SDS011;9818;48.382;10.850;2024-02-04T01:15:51;82.67;;;41.73;;
19364;SDS011;9818;48.382;10.850;2024-02-04T01:18:20;79.47;;;39.63;;
19364;SDS011;9818;48.382;10.850;2024-02-04T01:20:52;74.90;;;37.53;;
19364;SDS011;9818;48.382;10.850;2024-02-04T01:23:20;72.93;;;36.40;;
19364;SDS011;9818;48.382;10.850;2024-02-04T01:25:49;75.87;;;38.33;;
19364;SDS011;9818;48.382;10.850;2024-02-04T01:28:18;77.00;;;38.43;;
19364;SDS011;9818;48.382;10.850;2024-02-04T01:30:46;75.80;;;36.97;;
19364;SDS011;9818;48.382;10.850;2024-02-04T01:33:15;78.00;;;37.03;;
19364;SDS011;9818;48.382;10.850;2024-02-04T01:35:44;73.80;;;37.53;;
19364;SDS011;9818;48.382;10.850;2024-02-04T01:38:15;71.30;;;36.07;;
19364;SDS011;9818;48.382;10.850;2024-02-04T01:40:44;76.13;;;38.17;;
19364;SDS011;9818;48.382;10.850;2024-02-04T01:43:16;74.23;;;35.23;;
19364;SDS011;9818;48.382;10.850;2024-02-04T01:45:46;69.50;;;35.90;;
19364;SDS011;9818;48.382;10.850;2024-02-04T01:48:15;68.27;;;35.13;;
19364;SDS011;9818;48.382;10.850;2024-02-04T01:50:44;67.97;;;34.07;;
19364;SDS011;9818;48.382;10.850;2024-02-04T01:53:16;67.53;;;33.47;;
19364;SDS011;9818;48.382;10.850;2024-02-04T01:55:47;66.70;;;34.20;;
19364;SDS011;9818;48.382;10.850;2024-02-04T01:58:16;66.63;;;33.43;;
19364;SDS011;9818;48.382;10.850;2024-02-04T02:00:46;65.13;;;33.60;;
19364;SDS011;9818;48.382;10.850;2024-02-04T02:03:16;67.07;;;32.60;;
19364;SDS011;9818;48.382;10.850;2024-02-04T02:05:45;61.20;;;31.93;;
19364;SDS011;9818;48.382;10.850;2024-02-04T02:08:17;63.73;;;32.03;;
19364;SDS011;9818;48.382;10.850;2024-02-04T02:10:46;61.60;;;31.27;;
19364;SDS011;9818;48.382;10.850;2024-02-04T02:13:17;62.00;;;30.93;;
19364;SDS011;9818;48.382;10.850;2024-02-04T02:15:54;58.07;;;30.40;;
19364;SDS011;9818;48.382;10.850;2024-02-04T02:18:31;56.53;;;29.80;;
19364;SDS011;9818;48.382;10.850;2024-02-04T02:21:13;60.30;;;29.40;;
19364;SDS011;9818;48.382;10.850;2024-02-04T02:23:53;55.90;;;28.77;;
19364;SDS011;9818;48.382;10.850;2024-02-04T02:26:34;54.63;;;28.80;;
19364;SDS011;9818;48.382;10.850;2024-02-04T02:29:03;55.77;;;29.43;;
19364;SDS011;9818;48.382;10.850;2024-02-04T02:31:33;58.10;;;29.87;;
19364;SDS011;9818;48.382;10.850;2024-02-04T02:34:02;53.43;;;28.53;;
19364;SDS011;9818;48.382;10.850;2024-02-04T02:36:33;52.60;;;27.33;;
19364;SDS011;9818;48.382;10.850;2024-02-04T02:39:08;53.13;;;27.83;;
19364;SDS011;9818;48.382;10.850;2024-02-04T02:41:44;57.33;;;28.90;;
19364;SDS011;9818;48.382;10.850;2024-02-04T02:44:17;52.67;;;27.70;;
19364;SDS011;9818;48.382;10.850;2024-02-04T02:46:46;52.77;;;27.07;;
19364;SDS011;9818;48.382;10.850;2024-02-04T02:49:15;54.27;;;27.30;;
19364;SDS011;9818;48.382;10.850;2024-02-04T02:51:44;48.50;;;27.03;;
19364;SDS011;9818;48.382;10.850;2024-02-04T02:54:13;48.93;;;26.17;;
19364;SDS011;9818;48.382;10.850;2024-02-04T02:56:44;48.23;;;25.63;;
19364;SDS011;9818;48.382;10.850;2024-02-04T02:59:13;48.20;;;26.60;;
19364;SDS011;9818;48.382;10.850;2024-02-04T03:01:42;51.77;;;26.60;;
19364;SDS011;9818;48.382;10.850;2024-02-04T03:04:10;50.47;;;25.33;;
19364;SDS011;9818;48.382;10.850;2024-02-04T03:06:39;50.03;;;26.40;;
19364;SDS011;9818;48.382;10.850;2024-02-04T03:09:08;45.47;;;25.10;;
19364;SDS011;9818;48.382;10.850;2024-02-04T03:11:38;46.10;;;24.57;;
19364;SDS011;9818;48.382;10.850;2024-02-04T03:14:10;46.60;;;24.47;;
19364;SDS011;9818;48.382;10.850;2024-02-04T03:16:39;46.73;;;24.23;;
19364;SDS011;9818;48.382;10.850;2024-02-04T03:19:09;45.57;;;24.27;;
19364;SDS011;9818;48.382;10.850;2024-02-04T03:21:38;44.20;;;23.50;;
19364;SDS011;9818;48.382;10.850;2024-02-04T03:24:06;45.73;;;23.93;;
19364;SDS011;9818;48.382;10.850;2024-02-04T03:26:35;44.57;;;23.60;;
19364;SDS011;9818;48.382;10.850;2024-02-04T03:29:04;43.70;;;22.97;;
19364;SDS011;9818;48.382;10.850;2024-02-04T03:31:35;46.33;;;23.83;;
19364;SDS011;9818;48.382;10.850;2024-02-04T03:34:04;44.17;;;22.53;;
19364;SDS011;9818;48.382;10.850;2024-02-04T03:36:32;39.60;;;21.43;;
19364;SDS011;9818;48.382;10.850;2024-02-04T03:39:01;44.83;;;22.40;;
19364;SDS011;9818;48.382;10.850;2024-02-04T03:41:30;38.67;;;20.93;;
19364;SDS011;9818;48.382;10.850;2024-02-04T03:43:58;43.83;;;23.70;;
19364;SDS011;9818;48.382;10.850;2024-02-04T03:46:27;40.77;;;22.20;;
19364;SDS011;9818;48.382;10.850;2024-02-04T03:49:02;39.13;;;22.03;;
19364;SDS011;9818;48.382;10.850;2024-02-04T03:51:30;43.03;;;22.47;;
19364;SDS011;9818;48.382;10.850;2024-02-04T03:53:59;41.03;;;21.77;;
19364;SDS011;9818;48.382;10.850;2024-02-04T03:56:28;36.60;;;20.00;;
19364;SDS011;9818;48.382;10.850;2024-02-04T03:58:57;37.93;;;20.13;;
19364;SDS011;9818;48.382;10.850;2024-02-04T04:01:26;39.30;;;22.00;;
19364;SDS011;9818;48.382;10.850;2024-02-04T04:03:54;36.80;;;19.93;;
19364;SDS011;9818;48.382;10.850;2024-02-04T04:06:26;33.23;;;18.63;;
19364;SDS011;9818;48.382;10.850;2024-02-04T04:08:54;39.23;;;20.23;;
19364;SDS011;9818;48.382;10.850;2024-02-04T04:11:24;34.43;;;18.83;;
19364;SDS011;9818;48.382;10.850;2024-02-04T04:13:53;33.50;;;18.83;;
19364;SDS011;9818;48.382;10.850;2024-02-04T04:16:21;34.40;;;19.57;;
19364;SDS011;9818;48.382;10.850;2024-02-04T04:18:50;31.97;;;18.53;;
19364;SDS011;9818;48.382;10.850;2024-02-04T04:21:19;34.90;;;19.87;;
19364;SDS011;9818;48.382;10.850;2024-02-04T04:23:50;33.23;;;18.13;;
19364;SDS011;9818;48.382;10.850;2024-02-04T04:26:19;31.27;;;17.63;;
19364;SDS011;9818;48.382;10.850;2024-02-04T04:28:48;35.73;;;18.70;;
19364;SDS011;9818;48.382;10.850;2024-02-04T04:31:16;30.90;;;17.60;;
19364;SDS011;9818;48.382;10.850;2024-02-04T04:33:45;35.27;;;18.90;;
19364;SDS011;9818;48.382;10.850;2024-02-04T04:36:14;30.10;;;17.90;;
19364;SDS011;9818;48.382;10.850;2024-02-04T04:38:42;34.90;;;18.80;;
19364;SDS011;9818;48.382;10.850;2024-02-04T04:41:17;31.07;;;18.20;;
19364;SDS011;9818;48.382;10.850;2024-02-04T04:43:46;31.90;;;17.73;;
19364;SDS011;9818;48.382;10.850;2024-02-04T04:46:15;31.10;;;16.63;;
19364;SDS011;9818;48.382;10.850;2024-02-04T04:48:43;31.40;;;17.73;;
19364;SDS011;9818;48.382;10.850;2024-02-04T04:51:12;29.33;;;17.13;;
19364;SDS011;9818;48.382;10.850;2024-02-04T04:53:41;30.00;;;17.00;;
19364;SDS011;9818;48.382;10.850;2024-02-04T04:56:09;28.00;;;16.47;;
19364;SDS011;9818;48.382;10.850;2024-02-04T04:58:41;27.53;;;15.97;;
19364;SDS011;9818;48.382;10.850;2024-02-04T05:01:09;28.50;;;15.90;;
19364;SDS011;9818;48.382;10.850;2024-02-04T05:03:39;28.00;;;15.83;;
19364;SDS011;9818;48.382;10.850;2024-02-04T05:06:08;29.70;;;16.40;;
19364;SDS011;9818;48.382;10.850;2024-02-04T05:08:37;26.70;;;15.90;;
19364;SDS011;9818;48.382;10.850;2024-02-04T05:11:05;27.63;;;15.23;;
19364;SDS011;9818;48.382;10.850;2024-02-04T05:13:34;27.23;;;15.40;;
19364;SDS011;9818;48.382;10.850;2024-02-04T05:16:09;25.27;;;14.70;;
19364;SDS011;9818;48.382;10.850;2024-02-04T05:18:37;28.60;;;16.03;;
19364;SDS011;9818;48.382;10.850;2024-02-04T05:21:07;29.43;;;15.43;;
19364;SDS011;9818;48.382;10.850;2024-02-04T05:23:36;27.53;;;14.90;;
19364;SDS011;9818;48.382;10.850;2024-02-04T05:26:05;26.27;;;14.30;;
19364;SDS011;9818;48.382;10.850;2024-02-04T05:28:34;28.13;;;15.00;;
19364;SDS011;9818;48.382;10.850;2024-02-04T05:31:02;26.43;;;14.53;;
19364;SDS011;9818;48.382;10.850;2024-02-04T05:33:34;24.70;;;14.50;;
19364;SDS011;9818;48.382;10.850;2024-02-04T05:36:03;28.13;;;15.13;;
19364;SDS011;9818;48.382;10.850;2024-02-04T05:38:32;24.37;;;14.13;;
19364;SDS011;9818;48.382;10.850;2024-02-04T05:41:01;23.87;;;13.93;;
19364;SDS011;9818;48.382;10.850;2024-02-04T05:43:29;23.00;;;13.87;;
19364;SDS011;9818;48.382;10.850;2024-02-04T05:45:58;22.90;;;13.40;;
19364;SDS011;9818;48.382;10.850;2024-02-04T05:48:27;25.30;;;14.27;;
19364;SDS011;9818;48.382;10.850;2024-02-04T05:50:58;25.73;;;13.93;;
19364;SDS011;9818;48.382;10.850;2024-02-04T05:53:27;23.73;;;12.77;;
19364;SDS011;9818;48.382;10.850;2024-02-04T05:55:56;22.23;;;12.67;;
19364;SDS011;9818;48.382;10.850;2024-02-04T05:58:25;23.33;;;13.53;;
19364;SDS011;9818;48.382;10.850;2024-02-04T06:00:54;23.07;;;13.37;;
19364;SDS011;9818;48.382;10.850;2024-02-04T06:03:23;22.67;;;12.87;;
19364;SDS011;9818;48.382;10.850;2024-02-04T06:05:51;21.37;;;12.43;;
19364;SDS011;9818;48.382;10.850;2024-02-04T06:08:23;21.50;;;12.30;;
19364;SDS011;9818;48.382;10.850;2024-02-04T06:10:51;19.43;;;12.30;;
19364;SDS011;9818;48.382;10.850;2024-02-04T06:13:20;21.13;;;12.37;;
19364;SDS011;9818;48.382;10.850;2024-02-04T06:15:49;19.70;;;11.70;;
19364;SDS011;9818;48.382;10.850;2024-02-04T06:18:17;21.03;;;12.33;;
19364;SDS011;9818;48.382;10.850;2024-02-04T06:20:46;20.50;;;12.03;;
19364;SDS011;9818;48.382;10.850;2024-02-04T06:23:15;17.90;;;11.57;;
19364;SDS011;9818;48.382;10.850;2024-02-04T06:25:47;19.87;;;11.67;;
19364;SDS011;9818;48.382;10.850;2024-02-04T06:28:16;18.40;;;11.20;;
19364;SDS011;9818;48.382;10.850;2024-02-04T06:30:44;18.37;;;11.00;;
19364;SDS011;9818;48.382;10.850;2024-02-04T06:33:13;18.07;;;10.90;;
19364;SDS011;9818;48.382;10.850;2024-02-04T06:35:42;19.13;;;11.43;;
19364;SDS011;9818;48.382;10.850;2024-02-04T06:38:11;20.33;;;11.43;;
19364;SDS011;9818;48.382;10.850;2024-02-04T06:40:40;19.73;;;11.37;;
19364;SDS011;9818;48.382;10.850;2024-02-04T06:43:11;18.17;;;10.90;;
19364;SDS011;9818;48.382;10.850;2024-02-04T06:45:40;18.57;;;11.30;;
19364;SDS011;9818;48.382;10.850;2024-02-04T06:48:08;17.97;;;10.57;;
19364;SDS011;9818;48.382;10.850;2024-02-04T06:50:37;17.37;;;10.17;;
19364;SDS011;9818;48.382;10.850;2024-02-04T06:53:08;17.17;;;10.70;;
19364;SDS011;9818;48.382;10.850;2024-02-04T06:55:37;18.10;;;10.43;;
19364;SDS011;9818;48.382;10.850;2024-02-04T06:58:06;16.57;;;10.10;;
19364;SDS011;9818;48.382;10.850;2024-02-04T07:00:37;17.40;;;10.57;;
19364;SDS011;9818;48.382;10.850;2024-02-04T07:03:06;17.97;;;10.83;;
19364;SDS011;9818;48.382;10.850;2024-02-04T07:05:35;15.97;;;9.70;;
19364;SDS011;9818;48.382;10.850;2024-02-04T07:08:04;17.07;;;9.90;;
19364;SDS011;9818;48.382;10.850;2024-02-04T07:10:33;16.67;;;9.90;;
19364;SDS011;9818;48.382;10.850;2024-02-04T07:13:02;15.43;;;9.13;;
19364;SDS011;9818;48.382;10.850;2024-02-04T07:15:31;16.57;;;9.67;;
19364;SDS011;9818;48.382;10.850;2024-02-04T07:18:02;17.47;;;10.10;;
19364;SDS011;9818;48.382;10.850;2024-02-04T07:20:32;14.00;;;8.60;;
19364;SDS011;9818;48.382;10.850;2024-02-04T07:23:00;15.00;;;9.07;;
19364;SDS011;9818;48.382;10.850;2024-02-04T07:25:29;14.53;;;9.33;;
19364;SDS011;9818;48.382;10.850;2024-02-04T07:27:59;16.23;;;9.40;;
19364;SDS011;9818;48.382;10.850;2024-02-04T07:30:28;15.10;;;9.13;;
19364;SDS011;9818;48.382;10.850;2024-02-04T07:32:57;16.30;;;9.23;;
19364;SDS011;9818;48.382;10.850;2024-02-04T07:35:28;16.13;;;9.40;;
19364;SDS011;9818;48.382;10.850;2024-02-04T07:37:57;14.33;;;8.80;;
19364;SDS011;9818;48.382;10.850;2024-02-04T07:40:26;13.83;;;8.60;;
19364;SDS011;9818;48.382;10.850;2024-02-04T07:42:55;14.60;;;8.67;;
19364;SDS011;9818;48.382;10.850;2024-02-04T07:45:24;13.90;;;8.90;;
19364;SDS011;9818;48.382;10.850;2024-02-04T07:47:52;14.60;;;8.80;;
19364;SDS011;9818;48.382;10.850;2024-02-04T07:50:21;15.23;;;9.10;;
19364;SDS011;9818;48.382;10.850;2024-02-04T07:52:52;14.43;;;8.47;;
19364;SDS011;9818;48.382;10.850;2024-02-04T07:55:21;11.90;;;7.93;;
19364;SDS011;9818;48.382;10.850;2024-02-04T07:57:50;14.00;;;8.67;;
19364;SDS011;9818;48.382;10.850;2024-02-04T08:00:18;12.20;;;7.80;;
19364;SDS011;9818;48.382;10.850;2024-02-04T08:02:47;10.77;;;7.23;;
19364;SDS011;9818;48.382;10.850;2024-02-04T08:05:16;12.90;;;7.73;;
19364;SDS011;9818;48.382;10.850;2024-02-04T08:07:45;12.57;;;7.77;;
19364;SDS011;9818;48.382;10.850;2024-02-04T08:10:16;11.80;;;7.20;;
19364;SDS011;9818;48.382;10.850;2024-02-04T08:12:45;10.87;;;7.00;;
19364;SDS011;9818;48.382;10.850;2024-02-04T08:15:16;12.60;;;7.47;;
19364;SDS011;9818;48.382;10.850;2024-02-04T08:17:45;11.57;;;7.07;;
19364;SDS011;9818;48.382;10.850;2024-02-04T08:20:14;12.80;;;6.93;;
19364;SDS011;9818;48.382;10.850;2024-02-04T08:22:42;11.63;;;7.20;;
19364;SDS011;9818;48.382;10.850;2024-02-04T08:25:11;11.97;;;7.13;;
19364;SDS011;9818;48.382;10.850;2024-02-04T08:27:45;9.50;;;6.20;;
19364;SDS011;9818;48.382;10.850;2024-02-04T08:30:14;10.43;;;6.40;;
19364;SDS011;9818;48.382;10.850;2024-02-04T08:32:44;11.07;;;6.60;;
19364;SDS011;9818;48.382;10.850;2024-02-04T08:35:13;11.10;;;6.13;;
19364;SDS011;9818;48.382;10.850;2024-02-04T08:37:42;9.83;;;6.50;;
19364;SDS011;9818;48.382;10.850;2024-02-04T08:40:10;9.83;;;6.23;;
19364;SDS011;9818;48.382;10.850;2024-02-04T08:42:39;9.13;;;6.00;;
19364;SDS011;9818;48.382;10.850;2024-02-04T08:45:11;10.77;;;6.70;;
19364;SDS011;9818;48.382;10.850;2024-02-04T08:47:40;9.10;;;6.00;;
19364;SDS011;9818;48.382;10.850;2024-02-04T08:50:09;7.83;;;5.57;;
19364;SDS011;9818;48.382;10.850;2024-02-04T08:52:39;9.40;;;5.53;;
19364;SDS011;9818;48.382;10.850;2024-02-04T08:55:08;9.87;;;6.20;;
19364;SDS011;9818;48.382;10.850;2024-02-04T08:57:37;8.77;;;5.43;;
19364;SDS011;9818;48.382;10.850;2024-02-04T09:00:06;8.93;;;5.33;;
19364;SDS011;9818;48.382;10.850;2024-02-04T09:02:39;10.87;;;6.07;;
19364;SDS011;9818;48.382;10.850;2024-02-04T09:05:08;8.40;;;5.23;;
19364;SDS011;9818;48.382;10.850;2024-02-04T09:07:36;8.73;;;5.77;;
19364;SDS011;9818;48.382;10.850;2024-02-04T09:10:05;8.17;;;5.10;;
19364;SDS011;9818;48.382;10.850;2024-02-04T09:12:35;9.50;;;4.83;;
19364;SDS011;9818;48.382;10.850;2024-02-04T09:15:04;9.70;;;5.30;;
19364;SDS011;9818;48.382;10.850;2024-02-04T09:17:33;7.77;;;5.07;;
19364;SDS011;9818;48.382;10.850;2024-02-04T09:20:05;7.70;;;4.97;;
19364;SDS011;9818;48.382;10.850;2024-02-04T09:22:35;9.77;;;4.93;;
19364;SDS011;9818;48.382;10.850;2024-02-04T09:25:04;6.50;;;4.73;;
19364;SDS011;9818;48.382;10.850;2024-02-04T09:27:34;9.30;;;5.27;;
19364;SDS011;9818;48.382;10.850;2024-02-04T09:30:03;7.57;;;5.03;;
19364;SDS011;9818;48.382;10.850;2024-02-04T09:33:08;8.40;;;4.90;;
19364;SDS011;9818;48.382;10.850;2024-02-04T09:35:36;6.10;;;4.47;;
19364;SDS011;9818;48.382;10.850;2024-02-04T09:38:05;8.87;;;4.77;;
19364;SDS011;9818;48.382;10.850;2024-02-04T09:40:34;7.17;;;4.43;;
19364;SDS011;9818;48.382;10.850;2024-02-04T09:43:03;6.40;;;4.07;;
19364;SDS011;9818;48.382;10.850;2024-02-04T09:45:33;7.47;;;3.80;;
19364;SDS011;9818;48.382;10.850;2024-02-04T09:48:02;6.17;;;3.97;;
19364;SDS011;9818;48.382;10.850;2024-02-04T09:50:34;6.57;;;4.30;;
19364;SDS011;9818;48.382;10.850;2024-02-04T09:53:03;6.83;;;3.97;;
19364;SDS011;9818;48.382;10.850;2024-02-04T09:55:37;6.33;;;4.10;;
19364;SDS011;9818;48.382;10.850;2024-02-04T09:58:07;6.73;;;3.90;;
19364;SDS011;9818;48.382;10.850;2024-02-04T10:00:36;7.27;;;3.80;;
19364;SDS011;9818;48.382;10.850;2024-02-04T10:03:10;5.00;;;3.77;;
19364;SDS011;9818;48.382;10.850;2024-02-04T10:05:41;8.43;;;3.90;;
19364;SDS011;9818;48.382;10.850;2024-02-04T10:08:10;8.70;;;3.80;;
19364;SDS011;9818;48.382;10.850;2024-02-04T10:10:39;4.93;;;3.50;;
19364;SDS011;9818;48.382;10.850;2024-02-04T10:13:08;6.70;;;3.80;;
19364;SDS011;9818;48.382;10.850;2024-02-04T10:15:37;5.03;;;3.57;;
19364;SDS011;9818;48.382;10.850;2024-02-04T10:18:07;5.43;;;3.53;;
19364;SDS011;9818;48.382;10.850;2024-02-04T10:20:36;5.60;;;3.70;;
19364;SDS011;9818;48.382;10.850;2024-02-04T10:23:07;5.57;;;3.10;;
19364;SDS011;9818;48.382;10.850;2024-02-04T10:25:36;4.87;;;3.10;;
19364;SDS011;9818;48.382;10.850;2024-02-04T10:28:05;4.90;;;3.30;;
19364;SDS011;9818;48.382;10.850;2024-02-04T10:30:37;5.33;;;3.33;;
19364;SDS011;9818;48.382;10.850;2024-02-04T10:33:06;5.33;;;3.10;;
19364;SDS011;9818;48.382;10.850;2024-02-04T10:35:35;5.10;;;3.00;;
19364;SDS011;9818;48.382;10.850;2024-02-04T10:38:03;6.37;;;3.77;;
19364;SDS011;9818;48.382;10.850;2024-02-04T10:40:36;4.50;;;3.10;;
19364;SDS011;9818;48.382;10.850;2024-02-04T10:43:05;3.97;;;2.67;;
19364;SDS011;9818;48.382;10.850;2024-02-04T10:45:35;4.33;;;3.23;;
19364;SDS011;9818;48.382;10.850;2024-02-04T10:48:10;3.97;;;2.70;;
19364;SDS011;9818;48.382;10.850;2024-02-04T10:50:42;3.90;;;2.80;;
19364;SDS011;9818;48.382;10.850;2024-02-04T10:53:17;4.73;;;3.07;;
19364;SDS011;9818;48.382;10.850;2024-02-04T10:55:48;5.17;;;2.90;;
19364;SDS011;9818;48.382;10.850;2024-02-04T10:58:20;5.20;;;2.60;;
19364;SDS011;9818;48.382;10.850;2024-02-04T11:00:51;5.43;;;3.30;;
19364;SDS011;9818;48.382;10.850;2024-02-04T11:03:20;3.27;;;2.60;;
19364;SDS011;9818;48.382;10.850;2024-02-04T11:05:52;4.27;;;2.83;;
19364;SDS011;9818;48.382;10.850;2024-02-04T11:08:25;4.17;;;2.63;;
19364;SDS011;9818;48.382;10.850;2024-02-04T11:10:54;5.33;;;3.13;;
19364;SDS011;9818;48.382;10.850;2024-02-04T11:13:23;9.30;;;3.30;;
19364;SDS011;9818;48.382;10.850;2024-02-04T11:15:53;4.73;;;2.30;;
19364;SDS011;9818;48.382;10.850;2024-02-04T11:18:32;3.60;;;2.40;;
19364;SDS011;9818;48.382;10.850;2024-02-04T11:21:25;5.20;;;2.53;;
19364;SDS011;9818;48.382;10.850;2024-02-04T11:24:13;4.77;;;2.50;;
19364;SDS011;9818;48.382;10.850;2024-02-04T11:26:54;4.23;;;2.30;;
19364;SDS011;9818;48.382;10.850;2024-02-04T11:29:23;3.40;;;2.60;;
19364;SDS011;9818;48.382;10.850;2024-02-04T11:31:53;3.07;;;2.20;;
19364;SDS011;9818;48.382;10.850;2024-02-04T11:34:22;3.80;;;2.63;;
19364;SDS011;9818;48.382;10.850;2024-02-04T11:36:52;4.30;;;2.77;;
19364;SDS011;9818;48.382;10.850;2024-02-04T11:39:23;3.20;;;2.40;;
19364;SDS011;9818;48.382;10.850;2024-02-04T11:41:52;3.07;;;2.33;;
19364;SDS011;9818;48.382;10.850;2024-02-04T11:44:21;4.07;;;2.03;;
19364;SDS011;9818;48.382;10.850;2024-02-04T11:46:51;2.67;;;2.20;;
19364;SDS011;9818;48.382;10.850;2024-02-04T11:49:23;3.40;;;2.23;;
19364;SDS011;9818;48.382;10.850;2024-02-04T11:51:53;3.90;;;2.30;;
19364;SDS011;9818;48.382;10.850;2024-02-04T11:54:25;4.73;;;2.17;;
19364;SDS011;9818;48.382;10.850;2024-02-04T11:56:54;3.07;;;2.10;;
19364;SDS011;9818;48.382;10.850;2024-02-04T11:59:23;3.20;;;2.17;;
19364;SDS011;9818;48.382;10.850;2024-02-04T12:01:53;4.10;;;2.10;;
19364;SDS011;9818;48.382;10.850;2024-02-04T12:04:23;4.07;;;2.17;;
19364;SDS011;9818;48.382;10.850;2024-02-04T12:06:55;3.23;;;2.13;;
19364;SDS011;9818;48.382;10.850;2024-02-04T12:09:27;2.70;;;1.90;;
19364;SDS011;9818;48.382;10.850;2024-02-04T12:11:57;2.87;;;1.80;;
19364;SDS011;9818;48.382;10.850;2024-02-04T12:14:25;2.87;;;1.70;;
19364;SDS011;9818;48.382;10.850;2024-02-04T12:16:55;4.57;;;2.07;;
19364;SDS011;9818;48.382;10.850;2024-02-04T12:19:25;3.97;;;2.13;;
19364;SDS011;9818;48.382;10.850;2024-02-04T12:21:54;2.57;;;1.40;;
19364;SDS011;9818;48.382;10.850;2024-02-04T12:24:23;1.97;;;1.60;;
19364;SDS011;9818;48.382;10.850;2024-02-04T12:26:54;3.07;;;2.07;;
19364;SDS011;9818;48.382;10.850;2024-02-04T12:29:23;3.00;;;1.93;;
19364;SDS011;9818;48.382;10.850;2024-02-04T12:31:57;3.10;;;2.10;;
19364;SDS011;9818;48.382;10.850;2024-02-04T12:34:26;9.27;;;2.30;;
19364;SDS011;9818;48.382;10.850;2024-02-04T12:36:58;2.10;;;1.80;;
19364;SDS011;9818;48.382;10.850;2024-02-04T12:39:28;3.10;;;1.70;;
19364;SDS011;9818;48.382;10.850;2024-02-04T12:42:01;1.93;;;1.60;;
19364;SDS011;9818;48.382;10.850;2024-02-04T12:44:30;1.93;;;1.60;;
19364;SDS011;9818;48.382;10.850;2024-02-04T12:46:59;2.60;;;1.70;;
19364;SDS011;9818;48.382;10.850;2024-02-04T12:49:29;2.80;;;1.70;;
19364;SDS011;9818;48.382;10.850;2024-02-04T12:52:03;5.47;;;1.73;;
19364;SDS011;9818;48.382;10.850;2024-02-04T12:54:39;1.83;;;1.57;;
19364;SDS011;9818;48.382;10.850;2024-02-04T12:57:20;2.63;;;1.80;;
19364;SDS011;9818;48.382;10.850;2024-02-04T12:59:50;2.07;;;1.50;;
19364;SDS011;9818;48.382;10.850;2024-02-04T13:02:19;2.10;;;1.50;;
19364;SDS011;9818;48.382;10.850;2024-02-04T13:04:48;3.57;;;1.60;;
19364;SDS011;9818;48.382;10.850;2024-02-04T13:07:18;2.80;;;1.70;;
19364;SDS011;9818;48.382;10.850;2024-02-04T13:09:57;3.90;;;1.80;;
19364;SDS011;9818;48.382;10.850;2024-02-04T13:12:28;6.00;;;1.73;;
19364;SDS011;9818;48.382;10.850;2024-02-04T13:15:00;3.33;;;1.53;;
19364;SDS011;9818;48.382;10.850;2024-02-04T13:17:29;3.90;;;1.50;;
19364;SDS011;9818;48.382;10.850;2024-02-04T13:19:58;2.77;;;1.40;;
19364;SDS011;9818;48.382;10.850;2024-02-04T13:22:27;3.20;;;1.60;;
19364;SDS011;9818;48.382;10.850;2024-02-04T13:24:56;3.20;;;1.60;;
19364;SDS011;9818;48.382;10.850;2024-02-04T13:27:29;2.47;;;1.40;;
19364;SDS011;9818;48.382;10.850;2024-02-04T13:29:57;2.37;;;1.30;;
19364;SDS011;9818;48.382;10.850;2024-02-04T13:32:26;2.97;;;1.40;;
19364;SDS011;9818;48.382;10.850;2024-02-04T13:34:55;4.97;;;1.53;;
19364;SDS011;9818;48.382;10.850;2024-02-04T13:37:24;2.27;;;1.30;;
19364;SDS011;9818;48.382;10.850;2024-02-04T13:39:53;3.13;;;1.40;;
19364;SDS011;9818;48.382;10.850;2024-02-04T13:42:21;3.00;;;1.10;;
19364;SDS011;9818;48.382;10.850;2024-02-04T13:44:53;2.10;;;1.30;;
19364;SDS011;9818;48.382;10.850;2024-02-04T13:47:22;6.77;;;1.40;;
19364;SDS011;9818;48.382;10.850;2024-02-04T13:49:50;1.53;;;1.20;;
19364;SDS011;9818;48.382;10.850;2024-02-04T13:52:19;1.47;;;1.20;;
19364;SDS011;9818;48.382;10.850;2024-02-04T13:54:48;2.77;;;1.20;;
19364;SDS011;9818;48.382;10.850;2024-02-04T13:57:17;1.50;;;1.10;;
19364;SDS011;9818;48.382;10.850;2024-02-04T13:59:46;1.97;;;1.30;;
19364;SDS011;9818;48.382;10.850;2024-02-04T14:02:18;1.63;;;1.10;;
19364;SDS011;9818;48.382;10.850;2024-02-04T14:04:48;2.80;;;1.20;;
19364;SDS011;9818;48.382;10.850;2024-02-04T14:07:17;2.73;;;1.30;;
19364;SDS011;9818;48.382;10.850;2024-02-04T14:09:46;1.27;;;1.10;;
19364;SDS011;9818;48.382;10.850;2024-02-04T14:12:15;1.53;;;1.27;;
19364;SDS011;9818;48.382;10.850;2024-02-04T14:14:44;1.57;;;1.13;;
19364;SDS011;9818;48.382;10.850;2024-02-04T14:17:13;2.13;;;1.20;;
19364;SDS011;9818;48.382;10.850;2024-02-04T14:19:44;2.27;;;1.30;;
19364;SDS011;9818;48.382;10.850;2024-02-04T14:22:14;1.70;;;1.27;;
19364;SDS011;9818;48.382;10.850;2024-02-04T14:24:43;2.17;;;1.10;;
19364;SDS011;9818;48.382;10.850;2024-02-04T14:27:12;1.87;;;1.40;;
19364;SDS011;9818;48.382;10.850;2024-02-04T14:29:41;1.53;;;1.10;;
19364;SDS011;9818;48.382;10.850;2024-02-04T14:32:10;3.00;;;1.30;;
19364;SDS011;9818;48.382;10.850;2024-02-04T14:34:39;2.73;;;1.23;;
19364;SDS011;9818;48.382;10.850;2024-02-04T14:37:10;2.10;;;1.10;;
19364;SDS011;9818;48.382;10.850;2024-02-04T14:39:40;1.20;;;1.00;;
19364;SDS011;9818;48.382;10.850;2024-02-04T14:42:09;2.63;;;1.50;;
19364;SDS011;9818;48.382;10.850;2024-02-04T14:44:38;2.60;;;1.40;;
19364;SDS011;9818;48.382;10.850;2024-02-04T14:47:07;1.73;;;1.07;;
19364;SDS011;9818;48.382;10.850;2024-02-04T14:49:36;2.70;;;1.00;;